UKKK/IEV METAR and TAF weather

Enter ICAO airport designator
Station Type Date Time Source
UKKK METAR 2021/02/24 17:30 UTC NOAA

UKKK 241730Z 00000MPS 3500 BR OVC011 03/01 Q1030 R26/290056 NOSIG


Station Type Date Time Source
UKKK Decoded METAR 2021/02/24 17:30 UTC NOAA

Kyiv, Ukraine (UKKK) 50-24N 030-34E 167M
Feb 24, 2021 - 12:30 PM EST / 2021.02.24 1730 UTC
Wind: Calm:0
Visibility: 2 mile(s):0
Sky conditions: overcast
Weather: mist
Temperature: 37 F (3 C)
Dew Point: 33 F (1 C)
Relative Humidity: 86%
Pressure (altimeter): 30.42 in. Hg (1030 hPa)
ob: UKKK 241730Z 00000MPS 3500 BR OVC011 03/01 Q1030 R26/290056 NOSIG
cycle: 17

Station Type Date Time Source
UKKK TAF 2021/02/24 18:12 UTC NOAA

TAF TAF UKKK 241706Z 2418/2518 27003G08MPS 3000 BR OVC007 TX06/2512Z TN00/2505Z
TEMPO 2418/2508 0400 -DZ FG OVC002 PROB40
TEMPO 2420/2506 -FZDZ
BECMG 2508/2510 28005G10MPS 6000 NSW BKN010

Example: see airport list